CYUL

Montreal / Pierre Elliott Trudeau International Airport

Montréal, Quebec, Canada
METAR CYUL 141300Z VRB02KT 15SM SCT130 BKN210 BKN250 25/20 A2988 RMK AC4CI1CI2 SLP118 DENSITY ALT 1400FT
Observed Flight Rules
Aug-14 @ 13:00 UTC (41 minutes ago) Visual Flight Rules
Wind Visibility Clouds
Variable at 2 knots 15 miles
  • Scattered at 13,000' AGL
  • Broken at 21,000' AGL
  • Broken at 25,000' AGL
Temperatures Readings
Current 25°C / 77°F
Dewpoint 20°C / 68°F
Humidity 74%
Altimeter 29.88" Hg
Pressure 1011.8 hPa
Elevation 36
METAR CYUL 141300Z VRB02KT 15SM SCT130 BKN210 BKN250 25/20 A2988 RMK AC4CI1CI2 SLP118 DENSITY ALT 1400FT
Observed Flight Rules
Aug-14 @ 13:00 UTC
(41 minutes ago)
VFR
Wind Visibility
Variable at 2 knots 15 miles
Clouds
  • Scattered at 13,000' AGL
  • Broken at 21,000' AGL
  • Broken at 25,000' AGL
Temperature Dewpoint
25°C / 77°F 20°C / 68°F
Humidity Altimeter Pressure
74% 29.88" Hg 1011.8 hPa